Time;durP1;ratioP1;P1;durP2;ratioP2;P2;SDS_P1;SDS_P2;PMS_P1;PMS_P2;Temp;Humidity;BMP_temperature;BMP_pressure;BME280_temperature;BME280_humidity;BME280_pressure;Samples;Min_cycle;Max_cycle;Signal;HPM_P1;HPM_P2
2023/01/08 00:01:50;;;;;;;8.35;5.82;;;9.90;99.90;;;;;;5053932;28;20104;-36
2023/01/08 00:04:19;;;;;;;7.03;4.82;;;9.90;99.90;;;;;;5053489;28;20033;-39
2023/01/08 00:06:44;;;;;;;7.20;5.22;;;9.80;99.90;;;;;;5053155;28;20104;-39
2023/01/08 00:09:10;;;;;;;6.80;5.15;;;9.80;99.90;;;;;;5053373;28;20107;-38
2023/01/08 00:11:36;;;;;;;8.57;5.20;;;9.80;99.90;;;;;;5053370;28;20029;-41
2023/01/08 00:14:02;;;;;;;6.97;5.05;;;9.80;99.90;;;;;;5053392;28;20478;-43
2023/01/08 00:16:28;;;;;;;6.43;5.28;;;9.80;99.90;;;;;;5053014;28;20028;-42
2023/01/08 00:18:53;;;;;;;8.65;5.85;;;9.80;99.90;;;;;;5053281;28;20033;-38
2023/01/08 00:21:19;;;;;;;8.30;5.30;;;9.80;99.90;;;;;;5053128;28;20021;-40
2023/01/08 00:23:45;;;;;;;7.80;5.55;;;9.80;99.90;;;;;;5053876;28;20033;-41
2023/01/08 00:26:12;;;;;;;6.47;5.13;;;9.80;99.90;;;;;;5051942;28;20056;-39
2023/01/08 00:28:39;;;;;;;7.97;5.13;;;9.80;99.90;;;;;;5053715;28;20029;-41
2023/01/08 00:31:07;;;;;;;7.90;5.25;;;9.80;99.90;;;;;;5053150;28;20498;-41
2023/01/08 00:33:33;;;;;;;6.85;5.03;;;9.80;99.90;;;;;;5053046;28;20021;-43
2023/01/08 00:35:58;;;;;;;6.82;5.28;;;9.80;99.90;;;;;;5052623;28;20033;-39
2023/01/08 00:38:28;;;;;;;8.32;5.53;;;9.80;99.90;;;;;;5052445;28;20028;-39
2023/01/08 00:40:54;;;;;;;6.75;5.20;;;9.80;99.90;;;;;;5053127;28;20469;-43
2023/01/08 00:43:19;;;;;;;9.02;5.75;;;9.70;99.90;;;;;;5052651;28;20108;-42
2023/01/08 00:45:45;;;;;;;7.38;5.28;;;9.80;99.90;;;;;;5052469;28;20107;-42
2023/01/08 00:48:11;;;;;;;8.35;5.50;;;9.70;99.90;;;;;;5052340;28;20470;-41
2023/01/08 00:50:36;;;;;;;7.32;5.35;;;9.80;99.90;;;;;;5052563;28;20087;-41
2023/01/08 00:53:02;;;;;;;6.78;5.07;;;9.80;99.90;;;;;;5052250;28;20100;-42
2023/01/08 00:55:29;;;;;;;8.13;5.55;;;9.80;99.90;;;;;;5052329;28;20037;-40
2023/01/08 00:57:56;;;;;;;8.13;5.65;;;9.70;99.90;;;;;;5052103;28;20036;-41
2023/01/08 01:00:22;;;;;;;8.07;5.70;;;9.70;99.90;;;;;;5052405;28;20551;-42
2023/01/08 01:02:48;;;;;;;7.05;5.30;;;9.70;99.90;;;;;;5052380;28;20115;-43
2023/01/08 01:05:15;;;;;;;9.85;5.63;;;9.80;99.90;;;;;;5052228;28;20107;-39
2023/01/08 01:07:42;;;;;;;8.27;5.60;;;9.70;99.90;;;;;;5052172;28;20025;-43
2023/01/08 01:10:08;;;;;;;7.35;5.32;;;9.70;99.90;;;;;;5052199;28;20386;-40
2023/01/08 01:12:37;;;;;;;7.13;4.85;;;9.70;99.90;;;;;;5052053;28;20398;-41
2023/01/08 01:15:04;;;;;;;8.60;5.95;;;9.70;99.90;;;;;;5052145;28;20106;-42
2023/01/08 01:17:30;;;;;;;9.85;5.90;;;9.70;99.90;;;;;;5052062;28;20025;-42
2023/01/08 01:19:56;;;;;;;7.38;4.93;;;9.70;99.90;;;;;;5052577;28;20032;-42
2023/01/08 01:22:21;;;;;;;8.25;5.43;;;9.70;99.90;;;;;;5051961;28;20463;-43
2023/01/08 01:24:47;;;;;;;7.95;5.30;;;9.70;99.90;;;;;;5051970;28;20036;-37
2023/01/08 01:27:12;;;;;;;7.50;5.13;;;9.70;99.90;;;;;;5051489;28;20029;-43
2023/01/08 01:29:38;;;;;;;8.38;5.68;;;9.70;99.90;;;;;;5051751;28;20028;-42
2023/01/08 01:32:04;;;;;;;6.03;5.13;;;9.70;99.90;;;;;;5051852;28;20028;-40
2023/01/08 01:34:30;;;;;;;7.88;5.40;;;9.70;99.90;;;;;;5051739;28;20028;-42
2023/01/08 01:36:56;;;;;;;9.00;5.97;;;9.70;99.90;;;;;;5051449;28;20100;-42
2023/01/08 01:39:22;;;;;;;10.45;5.25;;;9.70;99.90;;;;;;5051701;28;20098;-36
2023/01/08 01:41:48;;;;;;;9.57;5.97;;;9.70;99.90;;;;;;5051525;28;20441;-42
2023/01/08 01:44:37;;;;;;;8.50;5.50;;;9.70;99.90;;;;;;5051623;28;20033;-39
2023/01/08 01:47:28;;;;;;;7.93;5.75;;;9.70;99.90;;;;;;5051935;28;20478;-41
2023/01/08 01:50:14;;;;;;;6.53;5.35;;;9.60;99.90;;;;;;5051556;28;20119;-43
2023/01/08 01:52:48;;;;;;;7.65;5.60;;;9.60;99.90;;;;;;5052231;28;20506;-37
2023/01/08 01:55:15;;;;;;;8.73;5.35;;;9.60;99.90;;;;;;5052139;28;20380;-42
2023/01/08 01:57:47;;;;;;;7.50;5.50;;;9.70;99.90;;;;;;5051172;28;20033;-43
2023/01/08 02:00:13;;;;;;;7.78;5.07;;;9.60;99.90;;;;;;5051436;28;20109;-41
2023/01/08 02:02:39;;;;;;;9.18;6.32;;;9.60;99.90;;;;;;5050085;28;20025;-43
2023/01/08 02:05:05;;;;;;;11.40;5.38;;;9.60;99.90;;;;;;5050681;28;20056;-39
2023/01/08 02:07:47;;;;;;;7.28;5.07;;;9.60;99.90;;;;;;5051073;28;20025;-38
2023/01/08 02:10:42;;;;;;;6.07;4.78;;;9.60;99.90;;;;;;5051268;28;20086;-39
2023/01/08 02:13:15;;;;;;;7.65;5.00;;;9.60;99.90;;;;;;5051993;28;20029;-43
2023/01/08 02:16:12;;;;;;;7.63;4.97;;;9.60;99.90;;;;;;5051226;28;20491;-43
2023/01/08 02:18:47;;;;;;;7.20;5.32;;;9.60;99.90;;;;;;5051350;28;20585;-40
2023/01/08 02:21:46;;;;;;;7.28;5.28;;;9.60;99.90;;;;;;5051141;28;20033;-39
2023/01/08 02:24:29;;;;;;;7.10;4.85;;;9.60;99.90;;;;;;5033420;28;20041;-43
2023/01/08 02:26:58;;;;;;;6.72;4.65;;;9.60;99.90;;;;;;5051316;28;20036;-42
2023/01/08 02:29:27;;;;;;;8.00;5.43;;;9.60;99.90;;;;;;5051469;28;20037;-42
2023/01/08 02:31:54;;;;;;;7.55;5.35;;;9.60;99.90;;;;;;5051110;28;20025;-37
2023/01/08 02:34:19;;;;;;;6.65;4.80;;;9.60;99.90;;;;;;5050947;28;20021;-40
2023/01/08 02:36:51;;;;;;;7.03;5.43;;;9.60;99.90;;;;;;5051137;28;20479;-37
2023/01/08 02:39:43;;;;;;;7.47;4.85;;;9.60;99.90;;;;;;5051278;28;20124;-42
2023/01/08 02:42:11;;;;;;;7.93;5.25;;;9.60;99.90;;;;;;5050247;28;20495;-42
2023/01/08 02:44:39;;;;;;;7.97;5.10;;;9.60;99.90;;;;;;5051031;28;20035;-41
2023/01/08 02:47:10;;;;;;;7.28;5.57;;;9.60;99.90;;;;;;5050593;28;20029;-40
2023/01/08 02:49:40;;;;;;;7.82;5.38;;;9.60;99.90;;;;;;5050887;28;20059;-40
2023/01/08 02:52:07;;;;;;;7.07;5.53;;;9.60;99.90;;;;;;5050802;28;20056;-40
2023/01/08 02:54:34;;;;;;;7.28;5.05;;;9.60;99.90;;;;;;5050681;28;20071;-41
2023/01/08 02:57:06;;;;;;;6.60;5.38;;;9.60;99.90;;;;;;5050792;28;20029;-42
2023/01/08 02:59:32;;;;;;;6.78;5.10;;;9.60;99.90;;;;;;5050333;28;20060;-41
2023/01/08 03:02:00;;;;;;;5.78;4.75;;;9.60;99.90;;;;;;5051132;28;20036;-41
2023/01/08 03:04:29;;;;;;;9.48;5.32;;;9.60;99.90;;;;;;5051248;28;20075;-40
2023/01/08 03:06:56;;;;;;;7.10;5.38;;;9.60;99.90;;;;;;5051174;28;20028;-41
2023/01/08 03:09:22;;;;;;;9.65;5.68;;;9.60;99.90;;;;;;5050583;28;20479;-39
2023/01/08 03:12:05;;;;;;;7.20;5.35;;;9.60;99.90;;;;;;5050692;28;20021;-41
2023/01/08 03:14:38;;;;;;;7.53;5.03;;;9.60;99.90;;;;;;5050919;28;20017;-38
2023/01/08 03:17:11;;;;;;;6.75;5.38;;;9.60;99.90;;;;;;5052265;28;20032;-42
2023/01/08 03:19:43;;;;;;;6.78;5.20;;;9.60;99.90;;;;;;5054587;28;20036;-36
2023/01/08 03:22:12;;;;;;;6.50;4.68;;;9.60;99.90;;;;;;5054421;28;20482;-41
2023/01/08 03:24:39;;;;;;;7.20;5.13;;;9.60;99.90;;;;;;5054217;28;20078;-42
2023/01/08 03:27:09;;;;;;;6.95;4.63;;;9.60;99.90;;;;;;5053941;28;20025;-43
2023/01/08 03:29:37;;;;;;;6.72;4.63;;;9.60;99.90;;;;;;5054023;28;20029;-38
2023/01/08 03:32:07;;;;;;;8.75;5.00;;;9.60;99.90;;;;;;5052617;28;20029;-40
2023/01/08 03:34:37;;;;;;;6.90;4.95;;;9.60;99.90;;;;;;5054055;28;20053;-40
2023/01/08 03:37:06;;;;;;;7.78;5.25;;;9.60;99.90;;;;;;5053888;28;20038;-42
2023/01/08 03:39:57;;;;;;;9.23;5.25;;;9.60;99.90;;;;;;5054204;28;20029;-42
2023/01/08 03:42:24;;;;;;;7.43;4.97;;;9.60;99.90;;;;;;5049038;28;20040;-43
2023/01/08 03:44:51;;;;;;;7.38;5.35;;;9.60;99.90;;;;;;5053775;28;20036;-36
2023/01/08 03:47:19;;;;;;;7.18;5.13;;;9.60;99.90;;;;;;5053676;28;20029;-42
2023/01/08 03:49:47;;;;;;;8.77;4.70;;;9.60;99.90;;;;;;5053987;28;20589;-38
2023/01/08 03:52:25;;;;;;;6.72;5.03;;;9.50;99.90;;;;;;5054016;28;20106;-41
2023/01/08 03:54:50;;;;;;;6.60;4.50;;;9.50;99.90;;;;;;5052633;28;20025;-39
2023/01/08 03:57:16;;;;;;;7.30;4.95;;;9.50;99.90;;;;;;5053750;28;20032;-40
2023/01/08 03:59:42;;;;;;;5.55;4.22;;;9.50;99.90;;;;;;5053952;28;20031;-39
2023/01/08 04:02:07;;;;;;;6.28;4.43;;;9.50;99.90;;;;;;5053481;28;20028;-41
2023/01/08 04:04:33;;;;;;;6.30;4.25;;;9.50;99.90;;;;;;5053528;28;20037;-43
2023/01/08 04:06:59;;;;;;;6.57;4.80;;;9.50;99.90;;;;;;5053192;28;20035;-38
2023/01/08 04:09:25;;;;;;;6.07;4.55;;;9.50;99.90;;;;;;5053509;28;20021;-42
2023/01/08 04:11:51;;;;;;;6.85;4.57;;;9.50;99.90;;;;;;5053937;28;20040;-42
2023/01/08 04:14:17;;;;;;;5.95;4.55;;;9.50;99.90;;;;;;5053347;28;20063;-39
2023/01/08 04:16:43;;;;;;;6.20;4.10;;;9.50;99.90;;;;;;5053053;28;20502;-36
2023/01/08 04:19:11;;;;;;;6.75;4.70;;;9.50;99.90;;;;;;5053286;28;20060;-40
2023/01/08 04:21:36;;;;;;;6.03;4.50;;;9.50;99.90;;;;;;5053140;28;20390;-42
2023/01/08 04:24:02;;;;;;;6.97;5.13;;;9.50;99.90;;;;;;5053581;28;20028;-41
2023/01/08 04:26:28;;;;;;;6.28;4.60;;;9.50;99.90;;;;;;5052769;28;20025;-36
2023/01/08 04:28:53;;;;;;;7.18;5.03;;;9.50;99.90;;;;;;5052383;28;20127;-41
2023/01/08 04:31:19;;;;;;;6.82;4.53;;;9.50;99.90;;;;;;5052905;28;20379;-38
2023/01/08 04:33:45;;;;;;;5.63;4.10;;;9.50;99.90;;;;;;5053000;28;20028;-39
2023/01/08 04:36:10;;;;;;;6.25;4.20;;;9.50;99.90;;;;;;5052670;28;20024;-42
2023/01/08 04:38:36;;;;;;;5.70;4.07;;;9.50;99.90;;;;;;5053153;28;20099;-38
2023/01/08 04:41:03;;;;;;;5.85;3.85;;;9.60;99.90;;;;;;5052840;28;20400;-43
2023/01/08 04:43:30;;;;;;;5.57;4.22;;;9.60;99.90;;;;;;5053282;28;20101;-43
2023/01/08 04:46:00;;;;;;;5.95;4.10;;;9.50;99.90;;;;;;5051087;28;20032;-41
2023/01/08 04:48:27;;;;;;;6.68;4.65;;;9.60;99.90;;;;;;5052830;28;20391;-42
2023/01/08 04:50:53;;;;;;;6.40;4.20;;;9.60;99.90;;;;;;5053403;28;20025;-42
2023/01/08 04:53:18;;;;;;;4.65;3.70;;;9.60;99.90;;;;;;5052685;28;20027;-43
2023/01/08 04:55:44;;;;;;;6.80;4.05;;;9.50;99.90;;;;;;5052598;28;20098;-42
2023/01/08 04:58:10;;;;;;;5.85;3.92;;;9.60;99.90;;;;;;5053063;28;20036;-38
2023/01/08 05:00:37;;;;;;;5.20;4.15;;;9.60;99.90;;;;;;5052561;28;20078;-38
2023/01/08 05:03:03;;;;;;;4.68;3.63;;;9.60;99.90;;;;;;5052378;28;20028;-37
2023/01/08 05:05:28;;;;;;;6.28;3.72;;;9.60;99.90;;;;;;5052705;28;20021;-42
2023/01/08 05:07:54;;;;;;;4.25;3.60;;;9.60;99.90;;;;;;5052560;28;20364;-41
2023/01/08 05:10:20;;;;;;;6.75;3.65;;;9.60;99.90;;;;;;5052224;28;20033;-38
2023/01/08 05:12:45;;;;;;;4.70;3.42;;;9.60;99.90;;;;;;5052201;28;20061;-41
2023/01/08 05:15:11;;;;;;;5.38;3.22;;;9.60;99.90;;;;;;5052085;28;20021;-42
2023/01/08 05:17:36;;;;;;;5.03;3.13;;;9.60;99.90;;;;;;5051792;28;20495;-41
2023/01/08 05:20:02;;;;;;;4.55;2.72;;;9.60;99.90;;;;;;5052335;28;20397;-37
2023/01/08 05:22:28;;;;;;;5.43;2.90;;;9.60;99.90;;;;;;5051894;28;20025;-41
2023/01/08 05:24:54;;;;;;;5.57;2.78;;;9.60;99.90;;;;;;5051944;28;20039;-43
2023/01/08 05:27:19;;;;;;;3.72;2.70;;;9.60;99.90;;;;;;5051568;28;20036;-36
2023/01/08 05:29:45;;;;;;;3.75;2.83;;;9.60;99.90;;;;;;5051729;28;20025;-41
2023/01/08 05:32:15;;;;;;;3.28;2.35;;;9.60;99.90;;;;;;5051859;28;20021;-42
2023/01/08 05:34:40;;;;;;;4.07;2.47;;;9.60;99.90;;;;;;5051927;28;20021;-40
2023/01/08 05:37:06;;;;;;;4.90;2.45;;;9.60;99.90;;;;;;5051552;28;20386;-41
2023/01/08 05:39:32;;;;;;;3.45;2.20;;;9.60;99.90;;;;;;5051623;28;20498;-40
2023/01/08 05:41:58;;;;;;;2.83;2.15;;;9.60;99.90;;;;;;5052050;28;20509;-40
2023/01/08 05:44:23;;;;;;;3.30;1.98;;;9.60;99.90;;;;;;5052153;28;20037;-40
2023/01/08 05:46:51;;;;;;;3.17;2.38;;;9.60;99.90;;;;;;5051503;28;20031;-40
2023/01/08 05:49:17;;;;;;;2.42;1.85;;;9.60;99.90;;;;;;5051420;28;20540;-42
2023/01/08 05:51:42;;;;;;;3.50;2.00;;;9.60;99.90;;;;;;5052230;28;20035;-41
2023/01/08 05:54:08;;;;;;;2.40;1.85;;;9.60;99.90;;;;;;5051743;28;20021;-41
2023/01/08 05:56:34;;;;;;;2.47;1.83;;;9.60;99.90;;;;;;5051102;28;20043;-40
2023/01/08 05:58:59;;;;;;;3.65;1.50;;;9.60;99.90;;;;;;5051303;28;20036;-38
2023/01/08 06:01:25;;;;;;;2.90;1.55;;;9.50;99.90;;;;;;5051413;28;20033;-37
2023/01/08 06:03:54;;;;;;;1.88;1.45;;;9.60;99.90;;;;;;5051454;28;20075;-38
2023/01/08 06:06:20;;;;;;;2.47;1.58;;;9.60;99.90;;;;;;5051844;28;20029;-40
2023/01/08 06:08:45;;;;;;;3.08;1.58;;;9.60;99.90;;;;;;5051221;28;20111;-41
2023/01/08 06:11:11;;;;;;;1.50;1.05;;;9.60;99.90;;;;;;5051448;28;20057;-41
2023/01/08 06:13:41;;;;;;;2.00;1.20;;;9.60;99.90;;;;;;5051350;28;20033;-39
2023/01/08 06:16:07;;;;;;;1.80;1.40;;;9.60;99.90;;;;;;5051181;28;20032;-43
2023/01/08 06:18:33;;;;;;;2.05;1.30;;;9.60;99.90;;;;;;5050073;28;20029;-41
2023/01/08 06:20:58;;;;;;;2.35;1.50;;;9.60;99.90;;;;;;5051062;28;20017;-43
2023/01/08 06:23:25;;;;;;;3.22;1.48;;;9.50;99.90;;;;;;5051706;28;20020;-39
2023/01/08 06:25:55;;;;;;;2.03;1.38;;;9.60;99.90;;;;;;5051092;28;20032;-39
2023/01/08 06:28:21;;;;;;;1.50;1.20;;;9.60;99.90;;;;;;5051661;28;20039;-40
2023/01/08 06:30:47;;;;;;;3.92;1.35;;;9.60;99.90;;;;;;5052013;28;20040;-36
2023/01/08 06:33:13;;;;;;;1.52;1.10;;;9.60;99.90;;;;;;5049685;28;20018;-40
2023/01/08 06:35:39;;;;;;;2.35;1.20;;;9.60;99.90;;;;;;5051537;28;20491;-40
2023/01/08 06:38:04;;;;;;;2.88;1.42;;;9.60;99.90;;;;;;5051138;28;20083;-42
2023/01/08 06:40:30;;;;;;;1.60;1.00;;;9.60;99.90;;;;;;5050983;28;20067;-42
2023/01/08 06:42:59;;;;;;;2.58;1.30;;;9.60;99.90;;;;;;5050970;28;20071;-42
2023/01/08 06:45:25;;;;;;;1.60;1.20;;;9.60;99.90;;;;;;5050874;28;20067;-40
2023/01/08 06:47:50;;;;;;;1.95;1.33;;;9.60;99.90;;;;;;5050537;28;20024;-41
2023/01/08 06:50:16;;;;;;;1.38;1.15;;;9.60;99.90;;;;;;5050804;28;20029;-38
2023/01/08 06:52:41;;;;;;;2.50;1.13;;;9.60;99.90;;;;;;5053367;28;20044;-41
2023/01/08 06:55:07;;;;;;;1.30;0.88;;;9.60;99.90;;;;;;5054414;28;20039;-42
2023/01/08 06:57:33;;;;;;;1.83;1.27;;;9.60;99.90;;;;;;5054424;28;20060;-38
2023/01/08 06:59:59;;;;;;;2.13;1.10;;;9.60;99.90;;;;;;5054733;28;20124;-43
2023/01/08 07:02:24;;;;;;;2.22;1.45;;;9.60;99.90;;;;;;5055042;28;20036;-40
2023/01/08 07:04:50;;;;;;;1.70;1.23;;;9.50;99.90;;;;;;5054953;28;20025;-43
2023/01/08 07:07:16;;;;;;;2.03;1.30;;;9.50;99.90;;;;;;5054668;28;20071;-36
2023/01/08 07:09:42;;;;;;;3.47;1.40;;;9.50;99.90;;;;;;5055149;28;20112;-42
2023/01/08 07:12:12;;;;;;;1.88;1.38;;;9.60;99.90;;;;;;5054427;28;20475;-41
2023/01/08 07:14:38;;;;;;;2.83;1.50;;;9.50;99.90;;;;;;5054650;28;20029;-37
2023/01/08 07:17:04;;;;;;;2.20;1.50;;;9.50;99.90;;;;;;5054531;28;20513;-38
2023/01/08 07:19:30;;;;;;;3.42;1.55;;;9.50;99.90;;;;;;5054901;28;20124;-39
2023/01/08 07:21:56;;;;;;;3.90;1.60;;;9.60;99.90;;;;;;5054326;28;20029;-39
2023/01/08 07:24:21;;;;;;;2.88;1.65;;;9.50;99.90;;;;;;5055180;28;20028;-41
2023/01/08 07:26:47;;;;;;;3.10;1.33;;;9.50;99.90;;;;;;5054143;28;20037;-43
2023/01/08 07:29:12;;;;;;;3.75;1.20;;;9.50;99.90;;;;;;5055136;28;20044;-43
2023/01/08 07:31:38;;;;;;;2.33;1.67;;;9.50;99.90;;;;;;5054563;28;20025;-43
2023/01/08 07:34:04;;;;;;;1.90;1.50;;;9.50;99.90;;;;;;5054447;28;20033;-40
2023/01/08 07:36:30;;;;;;;2.85;1.40;;;9.50;99.90;;;;;;5053149;28;20021;-43
2023/01/08 07:38:55;;;;;;;1.92;1.40;;;9.50;99.90;;;;;;5053958;28;20028;-40
2023/01/08 07:41:21;;;;;;;1.77;1.58;;;9.50;99.90;;;;;;5053928;28;20467;-37
2023/01/08 07:43:47;;;;;;;2.00;1.35;;;9.50;99.90;;;;;;5053940;28;20044;-39
2023/01/08 07:46:13;;;;;;;2.45;1.50;;;9.50;99.90;;;;;;5053562;28;20028;-40
2023/01/08 07:48:38;;;;;;;2.17;1.50;;;9.50;99.90;;;;;;5053654;28;20485;-38
2023/01/08 07:51:06;;;;;;;2.95;1.60;;;9.50;99.90;;;;;;5053948;28;20063;-37
2023/01/08 07:53:32;;;;;;;2.05;1.38;;;9.50;99.90;;;;;;5053913;28;20032;-42
2023/01/08 07:55:59;;;;;;;3.50;1.52;;;9.50;99.90;;;;;;5053447;28;20041;-35
2023/01/08 07:58:25;;;;;;;2.50;1.10;;;9.50;99.90;;;;;;5054477;28;20032;-39
2023/01/08 08:00:50;;;;;;;4.13;1.50;;;9.50;99.90;;;;;;5053776;28;20391;-39
2023/01/08 08:03:16;;;;;;;3.47;1.60;;;9.50;99.90;;;;;;5052512;28;20037;-41
2023/01/08 08:05:41;;;;;;;1.88;1.40;;;9.50;99.90;;;;;;5053760;28;20075;-39
2023/01/08 08:08:11;;;;;;;2.08;1.40;;;9.50;99.90;;;;;;5053377;28;20029;-40
2023/01/08 08:10:39;;;;;;;2.95;1.20;;;9.50;99.90;;;;;;5053944;28;20108;-42
2023/01/08 08:13:05;;;;;;;1.65;1.50;;;9.50;99.90;;;;;;5053798;28;20513;-43
2023/01/08 08:15:32;;;;;;;1.27;1.08;;;9.50;99.90;;;;;;5053508;28;20033;-42
2023/01/08 08:17:58;;;;;;;1.55;1.20;;;9.50;99.90;;;;;;5053047;28;20036;-40
2023/01/08 08:20:24;;;;;;;2.08;1.35;;;9.50;99.90;;;;;;5053356;28;20383;-37
2023/01/08 08:22:49;;;;;;;1.55;1.25;;;9.50;99.90;;;;;;5053808;28;20033;-42
2023/01/08 08:25:15;;;;;;;2.95;1.20;;;9.50;99.90;;;;;;5053249;28;20021;-43
2023/01/08 08:27:42;;;;;;;2.88;1.20;;;9.50;99.90;;;;;;5053250;28;20032;-36
2023/01/08 08:30:09;;;;;;;2.10;1.30;;;9.50;99.90;;;;;;5052871;28;20028;-42
2023/01/08 08:32:34;;;;;;;1.30;0.88;;;9.50;99.90;;;;;;5053521;28;20048;-42
2023/01/08 08:35:01;;;;;;;2.03;1.08;;;9.50;99.90;;;;;;5052968;28;20486;-36
2023/01/08 08:37:26;;;;;;;1.25;1.00;;;9.50;99.90;;;;;;5052858;28;20021;-41
2023/01/08 08:39:52;;;;;;;1.25;1.15;;;9.50;99.90;;;;;;5052812;28;20047;-40
2023/01/08 08:42:17;;;;;;;1.52;1.30;;;9.50;99.90;;;;;;5052815;28;20024;-38
2023/01/08 08:44:43;;;;;;;1.60;0.95;;;9.50;99.90;;;;;;5052651;28;20032;-43
2023/01/08 08:47:09;;;;;;;1.83;1.20;;;9.50;99.90;;;;;;5052567;28;20028;-38
2023/01/08 08:49:35;;;;;;;1.23;0.98;;;9.50;99.90;;;;;;5052766;28;20025;-38
2023/01/08 08:52:02;;;;;;;2.25;1.00;;;9.50;99.90;;;;;;5053005;28;20032;-42
2023/01/08 08:54:28;;;;;;;1.40;1.17;;;9.50;99.90;;;;;;5052600;28;20035;-42
2023/01/08 08:56:53;;;;;;;2.25;1.05;;;9.50;99.90;;;;;;5053479;28;20103;-40
2023/01/08 08:59:19;;;;;;;1.85;1.35;;;9.50;99.90;;;;;;5052414;28;20037;-42
2023/01/08 09:01:45;;;;;;;3.67;1.00;;;9.50;99.90;;;;;;5052450;28;20037;-39
2023/01/08 09:04:11;;;;;;;2.35;1.00;;;9.50;99.90;;;;;;5052780;28;20037;-37
2023/01/08 09:06:36;;;;;;;1.63;1.00;;;9.50;99.90;;;;;;5051411;28;20039;-42
2023/01/08 09:09:02;;;;;;;1.38;1.00;;;9.50;99.90;;;;;;5052143;28;20029;-40
2023/01/08 09:11:28;;;;;;;2.05;1.10;;;9.50;99.90;;;;;;5052290;28;20108;-42
2023/01/08 09:13:54;;;;;;;4.32;1.10;;;9.50;99.90;;;;;;5052126;28;20100;-42
2023/01/08 09:16:19;;;;;;;1.58;1.08;;;9.50;99.90;;;;;;5052287;28;20471;-43
2023/01/08 09:18:45;;;;;;;1.48;1.05;;;9.50;99.90;;;;;;5052154;28;20113;-41
2023/01/08 09:21:11;;;;;;;3.55;1.05;;;9.50;99.90;;;;;;5052116;28;20049;-42
2023/01/08 09:23:38;;;;;;;2.08;1.05;;;9.50;99.90;;;;;;5052588;28;20064;-40
2023/01/08 09:26:05;;;;;;;2.72;1.17;;;9.50;99.90;;;;;;5052828;28;20036;-40
2023/01/08 09:28:31;;;;;;;1.40;0.95;;;9.50;99.90;;;;;;5051852;28;20495;-41
2023/01/08 09:31:01;;;;;;;2.22;0.90;;;9.50;99.90;;;;;;5051927;28;20058;-42
2023/01/08 09:33:27;;;;;;;1.15;0.82;;;9.50;99.90;;;;;;5051941;28;20086;-38
2023/01/08 09:35:52;;;;;;;1.95;1.05;;;9.50;99.90;;;;;;5051615;28;20017;-40
2023/01/08 09:38:18;;;;;;;1.88;1.00;;;9.50;99.90;;;;;;5051650;28;20039;-42
2023/01/08 09:40:50;;;;;;;2.10;1.30;;;9.50;99.90;;;;;;5051705;28;20024;-42
2023/01/08 09:43:19;;;;;;;2.47;1.08;;;9.50;99.90;;;;;;5052144;28;20500;-40
2023/01/08 09:45:51;;;;;;;1.50;1.02;;;9.50;99.90;;;;;;5051861;28;20491;-42
2023/01/08 09:48:19;;;;;;;3.15;1.27;;;9.50;99.90;;;;;;5052508;28;20024;-43
2023/01/08 09:50:46;;;;;;;1.67;1.00;;;9.50;99.90;;;;;;5050330;28;20025;-43
2023/01/08 09:53:15;;;;;;;1.45;0.90;;;9.50;99.90;;;;;;5051514;28;20536;-43
2023/01/08 09:55:41;;;;;;;2.17;0.90;;;9.50;99.90;;;;;;5051205;28;20372;-40
2023/01/08 09:58:37;;;;;;;1.48;0.90;;;9.50;99.90;;;;;;5051090;28;20024;-36
2023/01/08 10:01:04;;;;;;;1.67;1.30;;;9.50;99.90;;;;;;5047824;28;20047;-42
2023/01/08 10:03:44;;;;;;;1.73;0.98;;;9.50;99.90;;;;;;5052498;28;20020;-41
2023/01/08 10:06:14;;;;;;;1.90;1.20;;;9.50;99.90;;;;;;5051545;28;20463;-40
2023/01/08 10:08:41;;;;;;;1.35;1.10;;;9.50;99.90;;;;;;5051508;28;20028;-38
2023/01/08 10:11:09;;;;;;;1.45;1.05;;;9.50;99.90;;;;;;5034233;28;20053;-40
2023/01/08 10:13:40;;;;;;;2.70;1.33;;;9.50;99.90;;;;;;5051306;28;20044;-38
2023/01/08 10:16:09;;;;;;;1.15;1.00;;;9.50;99.90;;;;;;5050625;28;20029;-40
2023/01/08 10:18:35;;;;;;;2.58;1.13;;;9.50;99.90;;;;;;5051352;28;20028;-39
2023/01/08 10:21:01;;;;;;;2.53;1.27;;;9.50;99.90;;;;;;5051320;28;20545;-42
2023/01/08 10:23:27;;;;;;;3.15;1.35;;;9.50;99.90;;;;;;5051466;28;20108;-41
2023/01/08 10:26:01;;;;;;;1.77;1.08;;;9.50;99.90;;;;;;5052257;28;20028;-41
2023/01/08 10:28:35;;;;;;;3.22;1.20;;;9.50;99.90;;;;;;5057038;28;20032;-43
2023/01/08 10:31:14;;;;;;;2.38;1.23;;;9.50;99.90;;;;;;5057811;28;20024;-41
2023/01/08 10:33:45;;;;;;;1.52;0.93;;;9.50;99.90;;;;;;5057743;28;20032;-39
2023/01/08 10:36:18;;;;;;;1.80;1.30;;;9.50;99.90;;;;;;5057484;28;20029;-43
2023/01/08 10:39:01;;;;;;;1.77;1.10;;;9.50;99.90;;;;;;5057662;28;20021;-37
2023/01/08 10:41:27;;;;;;;2.05;1.27;;;9.50;99.90;;;;;;5057645;28;20029;-37
2023/01/08 10:43:53;;;;;;;1.35;1.00;;;9.50;99.90;;;;;;5057630;28;20025;-41
2023/01/08 10:46:29;;;;;;;1.20;1.00;;;9.50;99.90;;;;;;5057377;28;20021;-38
2023/01/08 10:48:59;;;;;;;1.85;1.23;;;9.50;99.90;;;;;;5058192;28;20021;-35
2023/01/08 10:51:28;;;;;;;2.50;1.20;;;9.50;99.90;;;;;;5057923;28;20047;-37
2023/01/08 10:53:59;;;;;;;1.75;1.25;;;9.50;99.90;;;;;;5058120;28;20021;-37
2023/01/08 10:56:39;;;;;;;2.22;1.27;;;9.50;99.90;;;;;;5056199;28;20104;-36
2023/01/08 10:59:04;;;;;;;2.03;1.42;;;9.50;99.90;;;;;;5057931;28;20489;-40
2023/01/08 11:01:31;;;;;;;1.70;1.20;;;9.50;99.90;;;;;;5058179;28;20491;-41
2023/01/08 11:04:02;;;;;;;2.83;1.75;;;9.50;99.90;;;;;;5057386;28;20035;-42
2023/01/08 11:06:33;;;;;;;1.13;1.00;;;9.50;99.90;;;;;;5057860;28;20025;-42
2023/01/08 11:09:02;;;;;;;3.80;1.15;;;9.50;99.90;;;;;;5057867;28;20044;-38
2023/01/08 11:11:35;;;;;;;2.50;1.20;;;9.50;99.90;;;;;;5057560;28;20504;-41
2023/01/08 11:14:22;;;;;;;2.05;1.20;;;9.50;99.90;;;;;;5057060;28;20027;-39
2023/01/08 11:16:49;;;;;;;1.90;1.33;;;9.50;99.90;;;;;;5057159;28;20444;-42
2023/01/08 11:19:29;;;;;;;2.83;1.42;;;9.50;99.90;;;;;;5057225;28;20486;-36
2023/01/08 11:22:04;;;;;;;1.48;1.23;;;9.50;99.90;;;;;;5057361;28;20029;-38
2023/01/08 11:24:41;;;;;;;1.92;1.33;;;9.50;99.90;;;;;;5057617;28;20032;-38
2023/01/08 11:27:25;;;;;;;1.73;1.08;;;9.60;99.90;;;;;;5057719;28;20434;-42
2023/01/08 11:29:51;;;;;;;;;;;9.60;99.90;;;;;;5058618;28;20021;-42
2023/01/08 11:32:22;;;;;;;2.85;1.23;;;9.60;99.90;;;;;;5057289;28;19951;-41
2023/01/08 11:34:59;;;;;;;1.58;1.15;;;9.60;99.90;;;;;;5057579;28;20037;-40
2023/01/08 11:37:34;;;;;;;2.10;1.52;;;9.60;99.90;;;;;;5056490;28;20441;-39
2023/01/08 11:40:00;;;;;;;1.90;1.30;;;9.60;99.90;;;;;;5054063;28;20049;-42
2023/01/08 11:42:43;;;;;;;3.10;1.20;;;9.60;99.90;;;;;;5053980;28;20056;-40
2023/01/08 11:45:26;;;;;;;2.55;1.00;;;9.60;99.90;;;;;;5053925;28;20029;-43
2023/01/08 11:48:10;;;;;;;1.70;1.40;;;9.60;99.90;;;;;;5053697;28;20513;-40
2023/01/08 11:51:21;;;;;;;2.05;1.27;;;9.60;99.90;;;;;;5053837;28;20526;-40
2023/01/08 11:53:58;;;;;;;2.20;1.20;;;9.60;99.90;;;;;;5053772;28;20108;-39
2023/01/08 11:56:43;;;;;;;2.22;1.27;;;9.60;99.90;;;;;;5053946;28;20065;-40
2023/01/08 11:59:44;;;;;;;2.05;1.40;;;9.60;99.90;;;;;;5053788;28;20033;-41
2023/01/08 12:02:38;;;;;;;2.70;1.17;;;9.50;99.90;;;;;;5053831;28;20499;-40
2023/01/08 12:05:26;;;;;;;2.13;1.20;;;9.60;99.90;;;;;;5053768;28;20035;-40
2023/01/08 12:08:06;;;;;;;2.50;1.27;;;9.60;99.90;;;;;;5054911;28;20021;-41
2023/01/08 12:11:09;;;;;;;1.67;1.30;;;9.60;99.90;;;;;;5053434;28;20029;-40
2023/01/08 12:13:51;;;;;;;2.83;1.38;;;9.60;99.90;;;;;;5054299;28;20025;-41
2023/01/08 12:16:20;;;;;;;2.55;1.30;;;9.60;99.90;;;;;;5053148;28;20390;-41
2023/01/08 12:19:03;;;;;;;1.85;1.30;;;9.60;99.90;;;;;;5053832;28;20449;-43
2023/01/08 12:21:48;;;;;;;2.77;1.40;;;9.60;99.90;;;;;;5053677;28;20021;-42
2023/01/08 12:24:16;;;;;;;;;;;9.60;99.90;;;;;;5054454;28;20025;-43
2023/01/08 12:27:09;;;;;;;1.95;1.30;;;9.60;99.90;;;;;;5053193;28;20342;-39
2023/01/08 12:29:58;;;;;;;1.25;1.00;;;9.60;99.90;;;;;;5053392;28;20025;-42
2023/01/08 12:32:29;;;;;;;1.58;1.15;;;9.60;99.90;;;;;;5053106;28;20071;-40
2023/01/08 12:35:10;;;;;;;1.77;1.15;;;9.60;99.90;;;;;;5053813;28;20040;-39
2023/01/08 12:37:49;;;;;;;5.07;1.35;;;9.60;99.90;;;;;;5052948;28;20407;-41
2023/01/08 12:40:29;;;;;;;1.67;1.02;;;9.60;99.90;;;;;;5052961;28;20040;-40
2023/01/08 12:42:57;;;;;;;2.17;1.27;;;9.60;99.90;;;;;;5053215;28;20021;-42
2023/01/08 12:45:33;;;;;;;3.38;1.30;;;9.60;99.90;;;;;;5053163;28;20029;-41
2023/01/08 12:48:11;;;;;;;2.67;1.15;;;9.60;99.90;;;;;;5053191;28;20036;-40
2023/01/08 12:51:00;;;;;;;1.67;1.10;;;9.60;99.90;;;;;;5052186;28;20025;-41
2023/01/08 12:53:54;;;;;;;2.35;0.95;;;9.60;99.90;;;;;;5053078;28;20025;-43
2023/01/08 12:56:32;;;;;;;2.67;1.38;;;9.60;99.90;;;;;;5052267;28;20055;-41
2023/01/08 12:59:14;;;;;;;2.42;1.10;;;9.60;99.90;;;;;;5052566;28;20044;-38
2023/01/08 13:01:49;;;;;;;1.58;0.95;;;9.60;99.90;;;;;;5052586;28;20033;-42
2023/01/08 13:04:15;;;;;;;1.83;1.08;;;9.60;99.90;;;;;;5052305;28;20048;-40
2023/01/08 13:07:01;;;;;;;1.83;1.15;;;9.60;99.90;;;;;;5052230;28;20032;-41
2023/01/08 13:09:28;;;;;;;2.15;1.10;;;9.60;99.90;;;;;;5052333;28;20025;-41
2023/01/08 13:11:56;;;;;;;1.63;1.10;;;9.60;99.90;;;;;;5052407;28;20025;-37